sensor_id;sensor_type;location;lat;lon;timestamp;P1;durP1;ratioP1;P2;durP2;ratioP2
50267;SDS011;36153;50.960;6.220;2023-08-06T00:02:16;1.73;;;1.10;;
50267;SDS011;36153;50.960;6.220;2023-08-06T00:05:16;2.08;;;1.20;;
50267;SDS011;36153;50.960;6.220;2023-08-06T00:08:18;1.67;;;1.38;;
50267;SDS011;36153;50.960;6.220;2023-08-06T00:11:18;3.33;;;1.10;;
50267;SDS011;36153;50.960;6.220;2023-08-06T00:14:18;2.58;;;1.15;;
50267;SDS011;36153;50.960;6.220;2023-08-06T00:17:19;1.92;;;0.90;;
50267;SDS011;36153;50.960;6.220;2023-08-06T00:20:19;1.60;;;0.90;;
50267;SDS011;36153;50.960;6.220;2023-08-06T00:23:20;1.65;;;1.20;;
50267;SDS011;36153;50.960;6.220;2023-08-06T00:26:22;2.33;;;1.15;;
50267;SDS011;36153;50.960;6.220;2023-08-06T00:29:22;3.40;;;1.10;;
50267;SDS011;36153;50.960;6.220;2023-08-06T00:32:22;1.42;;;0.90;;
50267;SDS011;36153;50.960;6.220;2023-08-06T00:35:23;2.65;;;1.02;;
50267;SDS011;36153;50.960;6.220;2023-08-06T00:38:24;2.70;;;1.00;;
50267;SDS011;36153;50.960;6.220;2023-08-06T00:41:24;1.63;;;1.23;;
50267;SDS011;36153;50.960;6.220;2023-08-06T00:44:25;1.20;;;0.90;;
50267;SDS011;36153;50.960;6.220;2023-08-06T00:47:25;3.88;;;1.10;;
50267;SDS011;36153;50.960;6.220;2023-08-06T00:50:26;1.77;;;0.75;;
50267;SDS011;36153;50.960;6.220;2023-08-06T00:53:26;2.30;;;1.05;;
50267;SDS011;36153;50.960;6.220;2023-08-06T00:56:27;1.50;;;1.10;;
50267;SDS011;36153;50.960;6.220;2023-08-06T00:59:28;1.92;;;1.40;;
50267;SDS011;36153;50.960;6.220;2023-08-06T01:02:29;1.65;;;0.85;;
50267;SDS011;36153;50.960;6.220;2023-08-06T01:05:30;2.50;;;1.27;;
50267;SDS011;36153;50.960;6.220;2023-08-06T01:15:30;1.90;;;0.70;;
50267;SDS011;36153;50.960;6.220;2023-08-06T01:18:35;1.42;;;1.08;;
50267;SDS011;36153;50.960;6.220;2023-08-06T01:21:37;1.75;;;1.00;;
50267;SDS011;36153;50.960;6.220;2023-08-06T01:24:37;1.42;;;0.90;;
50267;SDS011;36153;50.960;6.220;2023-08-06T01:30:47;1.10;;;0.40;;
50267;SDS011;36153;50.960;6.220;2023-08-06T01:33:49;2.58;;;0.57;;
50267;SDS011;36153;50.960;6.220;2023-08-06T01:36:51;2.38;;;0.68;;
50267;SDS011;36153;50.960;6.220;2023-08-06T01:39:52;0.98;;;0.50;;
50267;SDS011;36153;50.960;6.220;2023-08-06T01:42:52;3.15;;;0.60;;
50267;SDS011;36153;50.960;6.220;2023-08-06T01:45:53;1.90;;;1.10;;
50267;SDS011;36153;50.960;6.220;2023-08-06T01:48:53;1.23;;;0.50;;
50267;SDS011;36153;50.960;6.220;2023-08-06T01:51:53;0.70;;;0.40;;
50267;SDS011;36153;50.960;6.220;2023-08-06T01:54:54;1.48;;;0.70;;
50267;SDS011;36153;50.960;6.220;2023-08-06T01:57:55;1.13;;;0.40;;
50267;SDS011;36153;50.960;6.220;2023-08-06T02:00:55;1.40;;;0.77;;
50267;SDS011;36153;50.960;6.220;2023-08-06T02:03:55;0.95;;;0.70;;
50267;SDS011;36153;50.960;6.220;2023-08-06T02:06:56;0.75;;;0.60;;
50267;SDS011;36153;50.960;6.220;2023-08-06T02:09:56;0.88;;;0.38;;
50267;SDS011;36153;50.960;6.220;2023-08-06T02:12:56;2.03;;;0.75;;
50267;SDS011;36153;50.960;6.220;2023-08-06T02:15:57;1.65;;;0.80;;
50267;SDS011;36153;50.960;6.220;2023-08-06T02:18:57;0.90;;;0.70;;
50267;SDS011;36153;50.960;6.220;2023-08-06T02:21:57;1.83;;;0.80;;
50267;SDS011;36153;50.960;6.220;2023-08-06T02:24:58;2.58;;;1.02;;
50267;SDS011;36153;50.960;6.220;2023-08-06T02:27:58;2.28;;;0.50;;
50267;SDS011;36153;50.960;6.220;2023-08-06T02:30:58;1.15;;;0.50;;
50267;SDS011;36153;50.960;6.220;2023-08-06T02:33:59;2.00;;;0.80;;
50267;SDS011;36153;50.960;6.220;2023-08-06T02:36:59;1.23;;;0.70;;
50267;SDS011;36153;50.960;6.220;2023-08-06T02:40:00;1.42;;;0.57;;
50267;SDS011;36153;50.960;6.220;2023-08-06T02:43:00;2.13;;;0.65;;
50267;SDS011;36153;50.960;6.220;2023-08-06T02:46:00;1.10;;;0.70;;
50267;SDS011;36153;50.960;6.220;2023-08-06T02:49:01;1.98;;;0.80;;
50267;SDS011;36153;50.960;6.220;2023-08-06T02:52:01;1.40;;;0.60;;
50267;SDS011;36153;50.960;6.220;2023-08-06T02:55:02;2.55;;;0.40;;
50267;SDS011;36153;50.960;6.220;2023-08-06T02:58:02;1.95;;;0.40;;
50267;SDS011;36153;50.960;6.220;2023-08-06T03:01:03;0.82;;;0.30;;
50267;SDS011;36153;50.960;6.220;2023-08-06T03:04:05;0.77;;;0.40;;
50267;SDS011;36153;50.960;6.220;2023-08-06T03:07:06;1.35;;;0.40;;
50267;SDS011;36153;50.960;6.220;2023-08-06T03:10:06;2.92;;;0.82;;
50267;SDS011;36153;50.960;6.220;2023-08-06T03:13:07;0.88;;;0.30;;
50267;SDS011;36153;50.960;6.220;2023-08-06T03:16:07;1.60;;;0.30;;
50267;SDS011;36153;50.960;6.220;2023-08-06T03:19:07;1.02;;;0.45;;
50267;SDS011;36153;50.960;6.220;2023-08-06T03:22:07;1.95;;;0.30;;
50267;SDS011;36153;50.960;6.220;2023-08-06T03:25:08;2.10;;;0.47;;
50267;SDS011;36153;50.960;6.220;2023-08-06T03:28:08;0.68;;;0.50;;
50267;SDS011;36153;50.960;6.220;2023-08-06T03:31:08;1.30;;;1.20;;
50267;SDS011;36153;50.960;6.220;2023-08-06T03:34:09;0.80;;;0.40;;
50267;SDS011;36153;50.960;6.220;2023-08-06T03:37:09;1.23;;;0.40;;
50267;SDS011;36153;50.960;6.220;2023-08-06T03:40:10;0.88;;;0.45;;
50267;SDS011;36153;50.960;6.220;2023-08-06T03:43:10;0.85;;;0.30;;
50267;SDS011;36153;50.960;6.220;2023-08-06T03:46:11;1.30;;;0.80;;
50267;SDS011;36153;50.960;6.220;2023-08-06T03:49:11;0.98;;;0.30;;
50267;SDS011;36153;50.960;6.220;2023-08-06T03:52:11;2.05;;;0.60;;
50267;SDS011;36153;50.960;6.220;2023-08-06T03:55:11;4.82;;;0.77;;
50267;SDS011;36153;50.960;6.220;2023-08-06T03:58:12;0.85;;;0.60;;
50267;SDS011;36153;50.960;6.220;2023-08-06T04:01:12;1.85;;;0.50;;
50267;SDS011;36153;50.960;6.220;2023-08-06T04:04:12;1.50;;;0.85;;
50267;SDS011;36153;50.960;6.220;2023-08-06T04:07:13;0.80;;;0.40;;
50267;SDS011;36153;50.960;6.220;2023-08-06T04:10:13;1.55;;;0.47;;
50267;SDS011;36153;50.960;6.220;2023-08-06T04:13:13;1.35;;;0.57;;
50267;SDS011;36153;50.960;6.220;2023-08-06T04:16:14;1.15;;;0.43;;
50267;SDS011;36153;50.960;6.220;2023-08-06T04:19:15;1.05;;;0.60;;
50267;SDS011;36153;50.960;6.220;2023-08-06T04:22:15;1.20;;;0.40;;
50267;SDS011;36153;50.960;6.220;2023-08-06T04:25:16;1.17;;;0.45;;
50267;SDS011;36153;50.960;6.220;2023-08-06T04:28:20;1.00;;;0.50;;
50267;SDS011;36153;50.960;6.220;2023-08-06T04:31:21;1.85;;;0.73;;
50267;SDS011;36153;50.960;6.220;2023-08-06T04:34:22;4.00;;;0.93;;
50267;SDS011;36153;50.960;6.220;2023-08-06T04:37:22;1.70;;;0.80;;
50267;SDS011;36153;50.960;6.220;2023-08-06T04:40:22;0.68;;;0.40;;
50267;SDS011;36153;50.960;6.220;2023-08-06T04:43:23;2.35;;;0.70;;
50267;SDS011;36153;50.960;6.220;2023-08-06T04:46:24;1.67;;;0.32;;
50267;SDS011;36153;50.960;6.220;2023-08-06T04:49:24;2.63;;;0.50;;
50267;SDS011;36153;50.960;6.220;2023-08-06T04:52:25;2.15;;;0.68;;
50267;SDS011;36153;50.960;6.220;2023-08-06T04:55:28;2.25;;;0.73;;
50267;SDS011;36153;50.960;6.220;2023-08-06T04:58:28;5.28;;;0.82;;
50267;SDS011;36153;50.960;6.220;2023-08-06T05:01:29;6.55;;;0.85;;
50267;SDS011;36153;50.960;6.220;2023-08-06T05:04:29;0.85;;;0.50;;
50267;SDS011;36153;50.960;6.220;2023-08-06T05:07:29;1.48;;;0.75;;
50267;SDS011;36153;50.960;6.220;2023-08-06T05:10:30;1.52;;;0.60;;
50267;SDS011;36153;50.960;6.220;2023-08-06T05:13:30;1.25;;;0.93;;
50267;SDS011;36153;50.960;6.220;2023-08-06T05:16:30;1.20;;;0.52;;
50267;SDS011;36153;50.960;6.220;2023-08-06T05:19:31;1.15;;;0.70;;
50267;SDS011;36153;50.960;6.220;2023-08-06T05:22:31;1.73;;;0.43;;
50267;SDS011;36153;50.960;6.220;2023-08-06T05:25:32;1.50;;;0.57;;
50267;SDS011;36153;50.960;6.220;2023-08-06T05:28:34;1.50;;;0.60;;
50267;SDS011;36153;50.960;6.220;2023-08-06T05:31:35;0.70;;;0.55;;
50267;SDS011;36153;50.960;6.220;2023-08-06T05:34:35;0.60;;;0.50;;
50267;SDS011;36153;50.960;6.220;2023-08-06T05:37:35;2.13;;;0.70;;
50267;SDS011;36153;50.960;6.220;2023-08-06T05:40:36;1.77;;;0.82;;
50267;SDS011;36153;50.960;6.220;2023-08-06T05:43:36;1.20;;;0.70;;
50267;SDS011;36153;50.960;6.220;2023-08-06T05:46:36;1.70;;;0.82;;
50267;SDS011;36153;50.960;6.220;2023-08-06T05:49:37;3.90;;;0.80;;
50267;SDS011;36153;50.960;6.220;2023-08-06T05:52:37;3.20;;;1.38;;
50267;SDS011;36153;50.960;6.220;2023-08-06T05:55:38;5.00;;;1.25;;
50267;SDS011;36153;50.960;6.220;2023-08-06T05:58:39;2.33;;;1.17;;
50267;SDS011;36153;50.960;6.220;2023-08-06T06:01:39;1.90;;;1.55;;
50267;SDS011;36153;50.960;6.220;2023-08-06T06:04:40;3.40;;;1.63;;
50267;SDS011;36153;50.960;6.220;2023-08-06T06:07:40;3.97;;;1.42;;
50267;SDS011;36153;50.960;6.220;2023-08-06T06:10:41;4.10;;;1.80;;
50267;SDS011;36153;50.960;6.220;2023-08-06T06:13:41;2.97;;;2.10;;
50267;SDS011;36153;50.960;6.220;2023-08-06T06:16:41;2.83;;;1.85;;
50267;SDS011;36153;50.960;6.220;2023-08-06T06:19:42;3.33;;;2.00;;
50267;SDS011;36153;50.960;6.220;2023-08-06T06:22:42;2.50;;;1.58;;
50267;SDS011;36153;50.960;6.220;2023-08-06T06:25:43;1.40;;;0.90;;
50267;SDS011;36153;50.960;6.220;2023-08-06T06:28:49;1.88;;;1.17;;
50267;SDS011;36153;50.960;6.220;2023-08-06T06:31:49;1.50;;;0.98;;
50267;SDS011;36153;50.960;6.220;2023-08-06T06:34:49;1.70;;;0.57;;
50267;SDS011;36153;50.960;6.220;2023-08-06T06:37:50;1.45;;;0.90;;
50267;SDS011;36153;50.960;6.220;2023-08-06T06:40:54;0.70;;;0.30;;
50267;SDS011;36153;50.960;6.220;2023-08-06T06:43:55;0.32;;;0.30;;
50267;SDS011;36153;50.960;6.220;2023-08-06T06:46:56;0.50;;;0.40;;
50267;SDS011;36153;50.960;6.220;2023-08-06T06:49:56;0.70;;;0.50;;
50267;SDS011;36153;50.960;6.220;2023-08-06T06:52:56;0.22;;;0.10;;
50267;SDS011;36153;50.960;6.220;2023-08-06T06:56:03;0.22;;;0.20;;
50267;SDS011;36153;50.960;6.220;2023-08-06T06:59:04;1.77;;;0.22;;
50267;SDS011;36153;50.960;6.220;2023-08-06T07:02:05;0.30;;;0.17;;
50267;SDS011;36153;50.960;6.220;2023-08-06T07:05:05;0.30;;;0.20;;
50267;SDS011;36153;50.960;6.220;2023-08-06T07:08:07;0.30;;;0.20;;
50267;SDS011;36153;50.960;6.220;2023-08-06T07:11:07;0.40;;;0.30;;
50267;SDS011;36153;50.960;6.220;2023-08-06T07:14:08;0.70;;;0.40;;
50267;SDS011;36153;50.960;6.220;2023-08-06T07:17:08;0.60;;;0.40;;
50267;SDS011;36153;50.960;6.220;2023-08-06T07:20:08;0.88;;;0.43;;
50267;SDS011;36153;50.960;6.220;2023-08-06T07:23:09;0.60;;;0.20;;
50267;SDS011;36153;50.960;6.220;2023-08-06T07:26:09;0.70;;;0.35;;
50267;SDS011;36153;50.960;6.220;2023-08-06T07:29:10;0.93;;;0.30;;
50267;SDS011;36153;50.960;6.220;2023-08-06T07:32:10;0.45;;;0.25;;
50267;SDS011;36153;50.960;6.220;2023-08-06T07:35:10;0.50;;;0.40;;
50267;SDS011;36153;50.960;6.220;2023-08-06T07:38:12;1.58;;;0.30;;
50267;SDS011;36153;50.960;6.220;2023-08-06T07:41:16;0.68;;;0.40;;
50267;SDS011;36153;50.960;6.220;2023-08-06T07:44:16;0.73;;;0.60;;
50267;SDS011;36153;50.960;6.220;2023-08-06T07:47:16;0.40;;;0.20;;
50267;SDS011;36153;50.960;6.220;2023-08-06T07:50:17;0.30;;;0.13;;
50267;SDS011;36153;50.960;6.220;2023-08-06T07:53:17;0.47;;;0.32;;
50267;SDS011;36153;50.960;6.220;2023-08-06T07:56:17;2.08;;;1.02;;
50267;SDS011;36153;50.960;6.220;2023-08-06T07:59:18;1.05;;;0.47;;
50267;SDS011;36153;50.960;6.220;2023-08-06T08:02:19;0.65;;;0.50;;
50267;SDS011;36153;50.960;6.220;2023-08-06T08:05:19;2.65;;;0.50;;
50267;SDS011;36153;50.960;6.220;2023-08-06T08:08:20;1.38;;;0.60;;
50267;SDS011;36153;50.960;6.220;2023-08-06T08:11:20;1.40;;;0.60;;
50267;SDS011;36153;50.960;6.220;2023-08-06T08:14:21;0.68;;;0.40;;
50267;SDS011;36153;50.960;6.220;2023-08-06T08:17:21;1.30;;;0.30;;
50267;SDS011;36153;50.960;6.220;2023-08-06T08:20:21;1.77;;;0.55;;
50267;SDS011;36153;50.960;6.220;2023-08-06T08:23:22;0.82;;;0.30;;
50267;SDS011;36153;50.960;6.220;2023-08-06T08:26:23;1.38;;;0.30;;
50267;SDS011;36153;50.960;6.220;2023-08-06T08:29:24;1.80;;;0.82;;
50267;SDS011;36153;50.960;6.220;2023-08-06T08:32:25;1.35;;;0.50;;
50267;SDS011;36153;50.960;6.220;2023-08-06T08:35:25;1.27;;;0.70;;
50267;SDS011;36153;50.960;6.220;2023-08-06T08:38:26;1.13;;;0.60;;
50267;SDS011;36153;50.960;6.220;2023-08-06T08:41:29;1.17;;;0.40;;
50267;SDS011;36153;50.960;6.220;2023-08-06T08:44:30;1.05;;;0.50;;
50267;SDS011;36153;50.960;6.220;2023-08-06T08:47:32;0.93;;;0.45;;
50267;SDS011;36153;50.960;6.220;2023-08-06T08:50:32;1.85;;;0.95;;
50267;SDS011;36153;50.960;6.220;2023-08-06T08:53:33;0.70;;;0.60;;
50267;SDS011;36153;50.960;6.220;2023-08-06T08:56:38;1.40;;;0.88;;
50267;SDS011;36153;50.960;6.220;2023-08-06T08:59:38;1.35;;;0.85;;
50267;SDS011;36153;50.960;6.220;2023-08-06T09:02:38;2.42;;;1.15;;
50267;SDS011;36153;50.960;6.220;2023-08-06T09:05:44;1.15;;;0.82;;
50267;SDS011;36153;50.960;6.220;2023-08-06T09:09:02;1.20;;;0.90;;
50267;SDS011;36153;50.960;6.220;2023-08-06T09:12:12;1.27;;;0.85;;
50267;SDS011;36153;50.960;6.220;2023-08-06T09:15:14;3.88;;;1.30;;
50267;SDS011;36153;50.960;6.220;2023-08-06T09:18:14;1.52;;;1.27;;
50267;SDS011;36153;50.960;6.220;2023-08-06T09:21:15;3.72;;;1.27;;
50267;SDS011;36153;50.960;6.220;2023-08-06T09:24:18;1.95;;;1.08;;
50267;SDS011;36153;50.960;6.220;2023-08-06T09:27:19;1.90;;;1.38;;
50267;SDS011;36153;50.960;6.220;2023-08-06T09:30:29;3.53;;;1.80;;
50267;SDS011;36153;50.960;6.220;2023-08-06T09:33:35;4.55;;;1.50;;
50267;SDS011;36153;50.960;6.220;2023-08-06T09:36:39;1.70;;;1.20;;
50267;SDS011;36153;50.960;6.220;2023-08-06T09:39:40;2.92;;;1.75;;
50267;SDS011;36153;50.960;6.220;2023-08-06T09:42:42;4.55;;;1.80;;
50267;SDS011;36153;50.960;6.220;2023-08-06T09:45:43;3.75;;;1.50;;
50267;SDS011;36153;50.960;6.220;2023-08-06T09:48:48;3.30;;;1.80;;
50267;SDS011;36153;50.960;6.220;2023-08-06T09:51:50;1.80;;;1.38;;
50267;SDS011;36153;50.960;6.220;2023-08-06T09:57:54;1.95;;;1.70;;
50267;SDS011;36153;50.960;6.220;2023-08-06T10:00:55;2.70;;;1.30;;
50267;SDS011;36153;50.960;6.220;2023-08-06T10:03:56;7.22;;;1.80;;
50267;SDS011;36153;50.960;6.220;2023-08-06T10:06:58;4.50;;;1.40;;
50267;SDS011;36153;50.960;6.220;2023-08-06T10:09:59;4.78;;;1.63;;
50267;SDS011;36153;50.960;6.220;2023-08-06T10:13:00;4.15;;;1.38;;
50267;SDS011;36153;50.960;6.220;2023-08-06T10:16:02;2.42;;;0.90;;
50267;SDS011;36153;50.960;6.220;2023-08-06T10:19:04;4.43;;;1.13;;
50267;SDS011;36153;50.960;6.220;2023-08-06T10:22:10;3.33;;;1.13;;
50267;SDS011;36153;50.960;6.220;2023-08-06T10:25:18;3.33;;;1.33;;
50267;SDS011;36153;50.960;6.220;2023-08-06T10:28:18;0.98;;;0.40;;
50267;SDS011;36153;50.960;6.220;2023-08-06T10:31:19;2.47;;;0.90;;
50267;SDS011;36153;50.960;6.220;2023-08-06T10:34:19;2.88;;;0.98;;
50267;SDS011;36153;50.960;6.220;2023-08-06T10:37:20;2.88;;;0.85;;
50267;SDS011;36153;50.960;6.220;2023-08-06T10:40:21;2.40;;;0.75;;
50267;SDS011;36153;50.960;6.220;2023-08-06T10:43:29;1.75;;;0.85;;
50267;SDS011;36153;50.960;6.220;2023-08-06T10:46:34;4.43;;;0.98;;
50267;SDS011;36153;50.960;6.220;2023-08-06T10:49:34;2.92;;;0.73;;
50267;SDS011;36153;50.960;6.220;2023-08-06T10:52:35;1.27;;;0.93;;
50267;SDS011;36153;50.960;6.220;2023-08-06T10:55:35;2.15;;;1.27;;
50267;SDS011;36153;50.960;6.220;2023-08-06T10:58:35;1.88;;;1.33;;
50267;SDS011;36153;50.960;6.220;2023-08-06T11:01:36;3.25;;;1.55;;
50267;SDS011;36153;50.960;6.220;2023-08-06T11:04:36;6.72;;;1.55;;
50267;SDS011;36153;50.960;6.220;2023-08-06T11:07:36;1.75;;;1.50;;
50267;SDS011;36153;50.960;6.220;2023-08-06T11:10:37;3.53;;;1.90;;
50267;SDS011;36153;50.960;6.220;2023-08-06T11:13:37;1.83;;;1.50;;
50267;SDS011;36153;50.960;6.220;2023-08-06T11:16:38;1.83;;;1.25;;
50267;SDS011;36153;50.960;6.220;2023-08-06T11:19:40;2.22;;;1.58;;
50267;SDS011;36153;50.960;6.220;2023-08-06T11:22:41;4.55;;;1.55;;
50267;SDS011;36153;50.960;6.220;2023-08-06T11:25:44;2.53;;;1.02;;
50267;SDS011;36153;50.960;6.220;2023-08-06T11:28:45;3.58;;;1.10;;
50267;SDS011;36153;50.960;6.220;2023-08-06T11:31:46;3.38;;;1.45;;
50267;SDS011;36153;50.960;6.220;2023-08-06T11:34:46;1.80;;;1.20;;
50267;SDS011;36153;50.960;6.220;2023-08-06T11:37:46;2.70;;;1.50;;
50267;SDS011;36153;50.960;6.220;2023-08-06T11:40:47;2.33;;;1.10;;
50267;SDS011;36153;50.960;6.220;2023-08-06T11:43:48;2.33;;;1.10;;
50267;SDS011;36153;50.960;6.220;2023-08-06T11:46:52;3.03;;;1.05;;
50267;SDS011;36153;50.960;6.220;2023-08-06T11:49:53;2.90;;;1.23;;
50267;SDS011;36153;50.960;6.220;2023-08-06T11:52:58;1.60;;;0.90;;
50267;SDS011;36153;50.960;6.220;2023-08-06T11:56:00;2.42;;;0.73;;
50267;SDS011;36153;50.960;6.220;2023-08-06T11:59:00;2.22;;;0.85;;
50267;SDS011;36153;50.960;6.220;2023-08-06T12:02:02;2.42;;;0.70;;
50267;SDS011;36153;50.960;6.220;2023-08-06T12:08:14;1.65;;;0.70;;
50267;SDS011;36153;50.960;6.220;2023-08-06T12:11:15;1.88;;;1.05;;
50267;SDS011;36153;50.960;6.220;2023-08-06T12:14:15;1.77;;;0.68;;
50267;SDS011;36153;50.960;6.220;2023-08-06T12:17:16;2.05;;;0.80;;
50267;SDS011;36153;50.960;6.220;2023-08-06T12:20:17;1.00;;;0.40;;
50267;SDS011;36153;50.960;6.220;2023-08-06T12:23:17;1.00;;;0.90;;
50267;SDS011;36153;50.960;6.220;2023-08-06T12:26:18;1.33;;;0.80;;
50267;SDS011;36153;50.960;6.220;2023-08-06T12:29:18;2.83;;;1.00;;
50267;SDS011;36153;50.960;6.220;2023-08-06T12:32:18;2.33;;;0.43;;
50267;SDS011;36153;50.960;6.220;2023-08-06T12:35:19;1.88;;;0.93;;
50267;SDS011;36153;50.960;6.220;2023-08-06T12:38:20;3.17;;;1.40;;
50267;SDS011;36153;50.960;6.220;2023-08-06T12:41:21;4.65;;;1.27;;
50267;SDS011;36153;50.960;6.220;2023-08-06T12:44:21;2.03;;;1.23;;
50267;SDS011;36153;50.960;6.220;2023-08-06T12:47:23;3.20;;;1.30;;
50267;SDS011;36153;50.960;6.220;2023-08-06T12:50:23;3.03;;;2.20;;
50267;SDS011;36153;50.960;6.220;2023-08-06T12:57:09;2.55;;;1.52;;
50267;SDS011;36153;50.960;6.220;2023-08-06T13:00:16;1.48;;;1.15;;
50267;SDS011;36153;50.960;6.220;2023-08-06T13:03:16;2.08;;;1.63;;
50267;SDS011;36153;50.960;6.220;2023-08-06T13:06:19;2.20;;;0.93;;
50267;SDS011;36153;50.960;6.220;2023-08-06T13:09:20;1.33;;;0.65;;
50267;SDS011;36153;50.960;6.220;2023-08-06T13:12:21;1.88;;;0.70;;
50267;SDS011;36153;50.960;6.220;2023-08-06T13:15:25;1.95;;;0.50;;
50267;SDS011;36153;50.960;6.220;2023-08-06T13:18:33;2.83;;;1.27;;
50267;SDS011;36153;50.960;6.220;2023-08-06T13:24:57;0.93;;;0.55;;
50267;SDS011;36153;50.960;6.220;2023-08-06T13:28:10;2.35;;;0.70;;
50267;SDS011;36153;50.960;6.220;2023-08-06T13:31:16;2.05;;;0.40;;
50267;SDS011;36153;50.960;6.220;2023-08-06T13:34:16;4.22;;;0.63;;
50267;SDS011;36153;50.960;6.220;2023-08-06T13:37:17;2.45;;;1.17;;
50267;SDS011;36153;50.960;6.220;2023-08-06T13:40:17;2.78;;;0.73;;
50267;SDS011;36153;50.960;6.220;2023-08-06T13:43:17;2.53;;;0.90;;
50267;SDS011;36153;50.960;6.220;2023-08-06T13:46:19;0.75;;;0.47;;
50267;SDS011;36153;50.960;6.220;2023-08-06T13:49:19;3.00;;;0.50;;
50267;SDS011;36153;50.960;6.220;2023-08-06T13:52:20;1.08;;;0.60;;
50267;SDS011;36153;50.960;6.220;2023-08-06T13:55:21;1.00;;;0.52;;
50267;SDS011;36153;50.960;6.220;2023-08-06T13:58:22;1.85;;;0.70;;
50267;SDS011;36153;50.960;6.220;2023-08-06T14:01:24;2.80;;;1.15;;
50267;SDS011;36153;50.960;6.220;2023-08-06T14:04:25;1.20;;;0.65;;
50267;SDS011;36153;50.960;6.220;2023-08-06T14:07:25;1.15;;;0.40;;
50267;SDS011;36153;50.960;6.220;2023-08-06T14:10:26;1.67;;;0.75;;
50267;SDS011;36153;50.960;6.220;2023-08-06T14:13:26;1.08;;;0.88;;
50267;SDS011;36153;50.960;6.220;2023-08-06T14:16:26;1.20;;;1.08;;
50267;SDS011;36153;50.960;6.220;2023-08-06T14:19:27;1.48;;;0.73;;
50267;SDS011;36153;50.960;6.220;2023-08-06T14:22:28;1.10;;;0.47;;
50267;SDS011;36153;50.960;6.220;2023-08-06T14:25:31;0.50;;;0.43;;
50267;SDS011;36153;50.960;6.220;2023-08-06T14:28:32;0.95;;;0.40;;
50267;SDS011;36153;50.960;6.220;2023-08-06T14:31:32;0.60;;;0.45;;
50267;SDS011;36153;50.960;6.220;2023-08-06T14:34:32;1.63;;;0.60;;
50267;SDS011;36153;50.960;6.220;2023-08-06T14:37:33;1.73;;;0.70;;
50267;SDS011;36153;50.960;6.220;2023-08-06T14:40:33;0.80;;;0.50;;
50267;SDS011;36153;50.960;6.220;2023-08-06T14:43:37;2.20;;;0.50;;
50267;SDS011;36153;50.960;6.220;2023-08-06T14:46:38;0.82;;;0.60;;
50267;SDS011;36153;50.960;6.220;2023-08-06T14:49:38;3.28;;;0.70;;
50267;SDS011;36153;50.960;6.220;2023-08-06T14:52:39;1.33;;;0.90;;
50267;SDS011;36153;50.960;6.220;2023-08-06T14:55:39;2.17;;;1.30;;
50267;SDS011;36153;50.960;6.220;2023-08-06T14:58:41;2.15;;;0.77;;
50267;SDS011;36153;50.960;6.220;2023-08-06T15:01:42;3.15;;;1.10;;
50267;SDS011;36153;50.960;6.220;2023-08-06T15:04:43;2.25;;;0.80;;
50267;SDS011;36153;50.960;6.220;2023-08-06T15:07:47;1.35;;;0.80;;
50267;SDS011;36153;50.960;6.220;2023-08-06T15:10:51;1.35;;;0.60;;
50267;SDS011;36153;50.960;6.220;2023-08-06T15:13:54;1.05;;;0.55;;
50267;SDS011;36153;50.960;6.220;2023-08-06T15:16:54;1.25;;;1.10;;
50267;SDS011;36153;50.960;6.220;2023-08-06T15:19:57;2.10;;;0.80;;
50267;SDS011;36153;50.960;6.220;2023-08-06T15:22:58;3.10;;;0.70;;
50267;SDS011;36153;50.960;6.220;2023-08-06T15:25:58;1.08;;;0.98;;
50267;SDS011;36153;50.960;6.220;2023-08-06T15:28:59;2.88;;;0.90;;
50267;SDS011;36153;50.960;6.220;2023-08-06T15:32:00;2.60;;;0.95;;
50267;SDS011;36153;50.960;6.220;2023-08-06T15:35:00;1.92;;;1.00;;
50267;SDS011;36153;50.960;6.220;2023-08-06T15:38:01;2.25;;;1.17;;
50267;SDS011;36153;50.960;6.220;2023-08-06T15:41:01;3.25;;;1.17;;
50267;SDS011;36153;50.960;6.220;2023-08-06T15:44:02;1.95;;;0.90;;
50267;SDS011;36153;50.960;6.220;2023-08-06T15:47:02;2.58;;;1.20;;
50267;SDS011;36153;50.960;6.220;2023-08-06T15:50:03;2.47;;;0.82;;
50267;SDS011;36153;50.960;6.220;2023-08-06T15:53:04;3.75;;;1.00;;
50267;SDS011;36153;50.960;6.220;2023-08-06T15:56:05;3.00;;;1.10;;
50267;SDS011;36153;50.960;6.220;2023-08-06T16:02:26;3.10;;;1.48;;
50267;SDS011;36153;50.960;6.220;2023-08-06T16:05:27;3.53;;;0.80;;
50267;SDS011;36153;50.960;6.220;2023-08-06T16:08:27;1.90;;;0.80;;
50267;SDS011;36153;50.960;6.220;2023-08-06T16:11:29;1.45;;;0.70;;
50267;SDS011;36153;50.960;6.220;2023-08-06T16:14:29;1.67;;;0.60;;
50267;SDS011;36153;50.960;6.220;2023-08-06T16:17:32;2.42;;;1.00;;
50267;SDS011;36153;50.960;6.220;2023-08-06T16:20:32;1.85;;;0.95;;
50267;SDS011;36153;50.960;6.220;2023-08-06T16:23:32;1.25;;;0.80;;
50267;SDS011;36153;50.960;6.220;2023-08-06T16:26:33;1.52;;;1.13;;
50267;SDS011;36153;50.960;6.220;2023-08-06T16:29:34;1.10;;;0.98;;
50267;SDS011;36153;50.960;6.220;2023-08-06T16:32:36;2.05;;;1.08;;
50267;SDS011;36153;50.960;6.220;2023-08-06T16:35:37;3.53;;;1.08;;
50267;SDS011;36153;50.960;6.220;2023-08-06T16:38:37;2.75;;;1.60;;
50267;SDS011;36153;50.960;6.220;2023-08-06T16:41:38;2.95;;;1.50;;
50267;SDS011;36153;50.960;6.220;2023-08-06T16:44:38;4.00;;;1.42;;
50267;SDS011;36153;50.960;6.220;2023-08-06T16:47:40;5.22;;;1.30;;
50267;SDS011;36153;50.960;6.220;2023-08-06T16:50:41;2.05;;;1.38;;
50267;SDS011;36153;50.960;6.220;2023-08-06T16:53:44;4.95;;;1.90;;
50267;SDS011;36153;50.960;6.220;2023-08-06T16:59:45;3.53;;;1.50;;
50267;SDS011;36153;50.960;6.220;2023-08-06T17:02:45;3.05;;;1.33;;
50267;SDS011;36153;50.960;6.220;2023-08-06T17:05:46;1.60;;;1.00;;
50267;SDS011;36153;50.960;6.220;2023-08-06T17:08:46;4.30;;;0.77;;
50267;SDS011;36153;50.960;6.220;2023-08-06T17:11:47;0.68;;;0.40;;
50267;SDS011;36153;50.960;6.220;2023-08-06T17:14:48;0.50;;;0.50;;
50267;SDS011;36153;50.960;6.220;2023-08-06T17:17:49;1.38;;;0.40;;
50267;SDS011;36153;50.960;6.220;2023-08-06T17:20:49;0.60;;;0.57;;
50267;SDS011;36153;50.960;6.220;2023-08-06T17:23:50;1.75;;;0.30;;
50267;SDS011;36153;50.960;6.220;2023-08-06T17:26:51;1.33;;;0.65;;
50267;SDS011;36153;50.960;6.220;2023-08-06T17:29:58;0.80;;;0.38;;
50267;SDS011;36153;50.960;6.220;2023-08-06T17:32:59;0.40;;;0.40;;
50267;SDS011;36153;50.960;6.220;2023-08-06T17:35:59;1.67;;;0.40;;
50267;SDS011;36153;50.960;6.220;2023-08-06T17:39:00;3.30;;;0.60;;
50267;SDS011;36153;50.960;6.220;2023-08-06T17:42:01;1.35;;;0.60;;
50267;SDS011;36153;50.960;6.220;2023-08-06T17:45:03;1.13;;;0.73;;
50267;SDS011;36153;50.960;6.220;2023-08-06T17:48:04;2.42;;;0.70;;
50267;SDS011;36153;50.960;6.220;2023-08-06T17:51:05;5.90;;;0.80;;
50267;SDS011;36153;50.960;6.220;2023-08-06T17:54:06;0.65;;;0.43;;
50267;SDS011;36153;50.960;6.220;2023-08-06T17:57:06;0.82;;;0.70;;
50267;SDS011;36153;50.960;6.220;2023-08-06T18:00:07;3.05;;;0.68;;
50267;SDS011;36153;50.960;6.220;2023-08-06T18:03:09;2.63;;;1.00;;
50267;SDS011;36153;50.960;6.220;2023-08-06T18:06:10;0.63;;;0.47;;
50267;SDS011;36153;50.960;6.220;2023-08-06T18:09:10;3.33;;;0.90;;
50267;SDS011;36153;50.960;6.220;2023-08-06T18:12:11;1.63;;;0.90;;
50267;SDS011;36153;50.960;6.220;2023-08-06T18:15:11;5.25;;;1.05;;
50267;SDS011;36153;50.960;6.220;2023-08-06T18:18:12;2.25;;;0.90;;
50267;SDS011;36153;50.960;6.220;2023-08-06T18:21:13;1.58;;;0.82;;
50267;SDS011;36153;50.960;6.220;2023-08-06T18:24:13;2.05;;;1.05;;
50267;SDS011;36153;50.960;6.220;2023-08-06T18:27:14;3.90;;;1.15;;
50267;SDS011;36153;50.960;6.220;2023-08-06T18:33:18;4.67;;;1.20;;
50267;SDS011;36153;50.960;6.220;2023-08-06T18:36:19;3.03;;;1.02;;
50267;SDS011;36153;50.960;6.220;2023-08-06T18:39:19;2.47;;;1.05;;
50267;SDS011;36153;50.960;6.220;2023-08-06T18:42:20;3.33;;;1.30;;
50267;SDS011;36153;50.960;6.220;2023-08-06T18:45:20;4.97;;;1.63;;